Station History

Weather Underground - logo

Station Historical Data
Daily Summary for February 9, 2018 Units:  Metric    English   Both
« Previous Day
Next Day »
Daily Weekly Monthly Yearly Custom
  High: Low: Average:
Temperature: -17.8 °C 6.7 °C 14.2 °C
Dew Point: -17.8 °C 5.3 °C 8.4 °C
Humidity: Humidity % 40 % 71 %
Wind Speed: 0 km/h 0 km/h 0.6 km/h
Wind Gust: 0 km/h - -
Wind:- - WSW
Pressure: 0 hPa 1014.1 hPa -
Precipitation: 0 mm    
Historical Graphs
 
 
Tabular Data for February 9, 2018
Time Temperature Dew Point Pressure Wind Wind Speed Wind Gust Humidity Rainfall Rate (Hourly)
-17.8 °C -17.8 °C 0 hPa Calm     Humidity % 0 mm
00:04 9.4 °C 7.4 °C 1019.5 hPa Calm     87 % 0 mm
00:09 9.7 °C 7.7 °C 1019.9 hPa Calm     87 % 0 mm
00:14 9.9 °C 7.7 °C 1019.9 hPa Calm     86 % 0 mm
00:19 9.4 °C 7.1 °C 1019.9 hPa Calm     85 % 0 mm
00:24 9.1 °C 7 °C 1019.5 hPa Calm     87 % 0 mm
00:29 8.9 °C 7.1 °C 1019.9 hPa Calm     88 % 0 mm
00:34 9.1 °C 7.4 °C 1019.5 hPa Calm     89 % 0 mm
00:39 9.2 °C 7.3 °C 1019.9 hPa Calm     88 % 0 mm
00:44 9.1 °C 7 °C 1019.5 hPa Calm     87 % 0 mm
00:49 8.9 °C 7.1 °C 1019.5 hPa Calm     88 % 0 mm
00:54 8.8 °C 6.8 °C 1019.5 hPa Calm     87 % 0 mm
00:59 8.7 °C 7 °C 1019.5 hPa Calm     89 % 0 mm
01:04 8.8 °C 7.1 °C 1019.5 hPa Calm     89 % 0 mm
01:09 8.8 °C 7.1 °C 1019.5 hPa Calm     89 % 0 mm
01:15 8.8 °C 6.7 °C 1019.5 hPa Calm     87 % 0 mm
01:20 8.6 °C 6.7 °C 1019.5 hPa Calm     88 % 0 mm
01:25 8.5 °C 6.6 °C 1019.5 hPa Calm     88 % 0 mm
01:30 8.4 °C 6.5 °C 1019.5 hPa Calm     88 % 0 mm
01:35 8.3 °C 6.4 °C 1019.5 hPa Calm     88 % 0 mm
01:40 8.2 °C 6.3 °C 1019.5 hPa Calm     88 % 0 mm
01:45 8.2 °C 6.3 °C 1019.2 hPa Calm     88 % 0 mm
01:50 8.2 °C 6.5 °C 1019.2 hPa Calm     89 % 0 mm
01:55 8.4 °C 6.7 °C 1019.2 hPa Calm     89 % 0 mm
02:00 8.5 °C 6.8 °C 1019.5 hPa Calm     89 % 0 mm
02:05 8.6 °C 6.9 °C 1019.5 hPa Calm     89 % 0 mm
02:10 8.7 °C 7 °C 1019.2 hPa Calm     89 % 0 mm
02:15 8.7 °C 6.8 °C 1019.2 hPa Calm     88 % 0 mm
02:20 8.6 °C 6.7 °C 1019.2 hPa Calm     88 % 0 mm
02:25 8.4 °C 6.3 °C 1019.2 hPa Calm     87 % 0 mm
02:30 8.2 °C 6.2 °C 1019.2 hPa Calm     87 % 0 mm
02:35 8.1 °C 6.2 °C 1019.2 hPa Calm     88 % 0 mm
02:40 7.9 °C 6 °C 1018.8 hPa Calm     88 % 0 mm
02:45 7.8 °C 5.9 °C 1018.8 hPa Calm     88 % 0 mm
02:50 7.7 °C 6 °C 1018.8 hPa Calm     89 % 0 mm
02:55 7.7 °C 5.9 °C 1018.8 hPa Calm     89 % 0 mm
03:00 7.4 °C 5.6 °C 1018.8 hPa Calm     88 % 0 mm
03:05 7.2 °C 5.5 °C 1018.8 hPa Calm     89 % 0 mm
03:10 7.1 °C 5.4 °C 1018.8 hPa Calm     89 % 0 mm
03:15 7 °C 5.4 °C 1018.8 hPa Calm     90 % 0 mm
03:20 6.9 °C 5.4 °C 1018.8 hPa Calm     90 % 0 mm
03:25 6.9 °C 5.4 °C 1019.2 hPa Calm     90 % 0 mm
03:31 6.9 °C 5.4 °C 1019.2 hPa Calm     90 % 0 mm
03:36 6.8 °C 5.3 °C 1019.2 hPa Calm     90 % 0 mm
03:41 6.8 °C 5.4 °C 1019.2 hPa Calm     91 % 0 mm
03:46 6.9 °C 5.5 °C 1019.2 hPa Calm     91 % 0 mm
03:51 6.8 °C 5.4 °C 1019.2 hPa Calm     91 % 0 mm
03:56 7 °C 5.8 °C 1018.8 hPa Calm     92 % 0 mm
04:01 7.2 °C 5.8 °C 1018.8 hPa Calm     91 % 0 mm
04:06 7.3 °C 5.9 °C 1018.8 hPa Calm     91 % 0 mm
04:11 7.4 °C 5.8 °C 1018.8 hPa Calm     90 % 0 mm
04:16 7.4 °C 5.8 °C 1018.8 hPa Calm     90 % 0 mm
04:21 7.4 °C 5.9 °C 1018.8 hPa Calm     90 % 0 mm
04:26 7.5 °C 5.9 °C 1018.8 hPa Calm     90 % 0 mm
04:31 7.4 °C 5.8 °C 1018.8 hPa Calm     90 % 0 mm
04:36 7.3 °C 5.7 °C 1018.8 hPa Calm     90 % 0 mm
04:41 7.3 °C 5.9 °C 1018.8 hPa Calm     91 % 0 mm
04:46 7.2 °C 5.8 °C 1018.8 hPa Calm     91 % 0 mm
04:51 7.1 °C 5.7 °C 1018.8 hPa Calm     91 % 0 mm
04:56 7.2 °C 5.8 °C 1018.5 hPa Calm     91 % 0 mm
05:01 7.2 °C 5.8 °C 1018.5 hPa Calm     91 % 0 mm
05:06 7.1 °C 5.7 °C 1018.5 hPa Calm     91 % 0 mm
05:11 6.9 °C 5.4 °C 1018.5 hPa Calm     90 % 0 mm
05:16 6.8 °C 5.3 °C 1018.5 hPa Calm     90 % 0 mm
05:21 7 °C 5.8 °C 1018.5 hPa Calm     92 % 0 mm
05:26 7.1 °C 5.8 °C 1018.5 hPa Calm     92 % 0 mm
05:31 6.9 °C 5.7 °C 1018.5 hPa Calm     92 % 0 mm
05:36 6.9 °C 5.7 °C 1018.5 hPa Calm     92 % 0 mm
05:41 6.9 °C 5.7 °C 1018.5 hPa Calm     92 % 0 mm
05:46 6.8 °C 5.6 °C 1018.5 hPa Calm     92 % 0 mm
05:51 6.8 °C 5.6 °C 1018.5 hPa Calm     92 % 0 mm
05:56 6.8 °C 5.6 °C 1018.5 hPa Calm     92 % 0 mm
06:01 6.8 °C 5.6 °C 1018.5 hPa Calm     92 % 0 mm
06:06 6.8 °C 5.6 °C 1018.5 hPa Calm     92 % 0 mm
06:11 6.8 °C 5.6 °C 1018.5 hPa Calm     92 % 0 mm
06:16 6.8 °C 5.6 °C 1018.5 hPa Calm     92 % 0 mm
06:21 6.8 °C 5.6 °C 1018.5 hPa Calm     92 % 0 mm
06:26 6.8 °C 5.6 °C 1018.5 hPa Calm     92 % 0 mm
06:31 6.7 °C 5.5 °C 1018.5 hPa Calm     92 % 0 mm
06:36 6.7 °C 5.4 °C 1018.5 hPa Calm     92 % 0 mm
06:41 6.7 °C 5.5 °C 1018.5 hPa Calm     92 % 0 mm
06:47 6.9 °C 5.8 °C 1018.5 hPa Calm     93 % 0 mm
06:51 7.2 °C 6.1 °C 1018.5 hPa Calm     93 % 0 mm
06:56 7.3 °C 6.2 °C 1018.5 hPa Calm     93 % 0 mm
07:02 7.3 °C 6.1 °C 1018.8 hPa Calm     92 % 0 mm
07:07 7.2 °C 6 °C 1018.5 hPa Calm     92 % 0 mm
07:12 7.2 °C 5.9 °C 1018.8 hPa Calm     92 % 0 mm
07:17 7.3 °C 6.1 °C 1018.5 hPa Calm     92 % 0 mm
07:22 7.4 °C 6.2 °C 1018.5 hPa Calm     92 % 0 mm
07:27 7.6 °C 6.5 °C 1018.8 hPa Calm     93 % 0 mm
07:32 7.8 °C 6.6 °C 1018.8 hPa Calm     92 % 0 mm
07:37 8.1 °C 6.8 °C 1018.8 hPa Calm     92 % 0 mm
07:42 8.2 °C 6.8 °C 1018.8 hPa Calm     91 % 0 mm
07:47 8.6 °C 7.2 °C 1019.2 hPa Calm     91 % 0 mm
07:52 8.9 °C 7.6 °C 1019.2 hPa Calm     91 % 0 mm
07:57 9.3 °C 7.8 °C 1019.2 hPa Calm     90 % 0 mm
08:02 9.8 °C 8.1 °C 1019.2 hPa Calm     89 % 0 mm
08:07 10.6 °C 8.7 °C 1019.2 hPa Calm     88 % 0 mm
08:12 11.5 °C 9.2 °C 1019.2 hPa Calm     86 % 0 mm
08:17 12.5 °C 9.5 °C 1019.5 hPa Calm     82 % 0 mm
08:22 13.1 °C 9.7 °C 1019.5 hPa Calm     80 % 0 mm
08:27 13.7 °C 10.1 °C 1019.5 hPa Calm     79 % 0 mm
08:32 14.1 °C 9.7 °C 1019.5 hPa Calm     75 % 0 mm
08:37 14.3 °C 9.9 °C 1019.9 hPa Calm     75 % 0 mm
08:42 14.6 °C 10 °C 1019.9 hPa Calm     74 % 0 mm
08:47 14.3 °C 9.8 °C 1019.9 hPa Calm     74 % 0 mm
08:52 14.4 °C 9.6 °C 1019.9 hPa Calm     73 % 0 mm
08:57 14.8 °C 10 °C 1019.9 hPa Calm     73 % 0 mm
09:02 15.2 °C 10 °C 1019.9 hPa Calm     71 % 0 mm
09:07 15.6 °C 9.9 °C 1019.5 hPa Calm     69 % 0 mm
09:12 15.8 °C 9.7 °C 1019.5 hPa Calm     67 % 0 mm
09:17 16 °C 9.9 °C 1019.5 hPa Calm     67 % 0 mm
09:22 16.3 °C 9.7 °C 1019.5 hPa Calm     65 % 0 mm
09:27 16.4 °C 9.6 °C 1019.5 hPa Calm     64 % 0 mm
09:32 16.7 °C 9.4 °C 1019.5 hPa Calm     62 % 0 mm
09:37 16.7 °C 9.1 °C 1019.5 hPa Calm     61 % 0 mm
09:42 16.7 °C 9.3 °C 1019.2 hPa South 1.9 km/h   62 % 0 mm
09:47 17 °C 9.4 °C 1019.2 hPa Calm     61 % 0 mm
09:52 17.4 °C 9.6 °C 1019.2 hPa Calm     60 % 0 mm
09:57 17.4 °C 9.3 °C 1019.2 hPa Calm     59 % 0 mm
10:02 17.2 °C 9.3 °C 1019.2 hPa Calm     60 % 0 mm
10:07 17.6 °C 9.4 °C 1019.2 hPa NNW 1.9 km/h 1.9 km/h 59 % 0 mm
10:12 17.7 °C 9.1 °C 1018.8 hPa Calm     57 % 0 mm
10:17 17.9 °C 10 °C 1018.8 hPa Calm     60 % 0 mm
10:22 18.5 °C 10.1 °C 1018.8 hPa SSW 1.9 km/h 1.9 km/h 58 % 0 mm
10:27 18.7 °C 10 °C 1018.8 hPa SE 3.2 km/h 3.2 km/h 57 % 0 mm
10:32 18.8 °C 10.1 °C 1018.8 hPa SE 1.9 km/h   57 % 0 mm
10:37 18.9 °C 10.5 °C 1018.8 hPa Calm     58 % 0 mm
10:42 19.3 °C 10.6 °C 1018.8 hPa SSW 3.2 km/h 3.2 km/h 57 % 0 mm
10:47 19.4 °C 10.2 °C 1018.8 hPa Calm     55 % 0 mm
10:52 19.6 °C 10.3 °C 1018.5 hPa NNW 3.7 km/h 3.7 km/h 55 % 0 mm
10:57 19.7 °C 10.9 °C 1018.5 hPa SSE 3.7 km/h   57 % 0 mm
11:02 19.6 °C 10.6 °C 1018.5 hPa NW 1.9 km/h   56 % 0 mm
11:07 19.4 °C 10.1 °C 1018.5 hPa NNW 1.9 km/h 1.9 km/h 55 % 0 mm
11:12 19.5 °C 10.8 °C 1018.5 hPa SW 1.6 km/h 1.6 km/h 57 % 0 mm
11:17 19.7 °C 10.7 °C 1018.2 hPa West 1.9 km/h 1.9 km/h 56 % 0 mm
11:22 19.6 °C 10.3 °C 1018.5 hPa South 3.7 km/h 3.7 km/h 55 % 0 mm
11:27 19.6 °C 10.3 °C 1018.2 hPa SW 3.7 km/h   55 % 0 mm
11:32 19.9 °C 10.6 °C 1018.2 hPa NW 3.7 km/h 3.7 km/h 55 % 0 mm
11:37 19.9 °C 10.6 °C 1018.2 hPa NW 3.7 km/h 3.7 km/h 55 % 0 mm
11:42 20.2 °C 10.8 °C 1017.8 hPa WNW 5.6 km/h 5.6 km/h 55 % 0 mm
11:47 20.4 °C 11.4 °C 1017.8 hPa SSE 1.9 km/h 1.9 km/h 56 % 0 mm
11:52 20.9 °C 10.9 °C 1017.8 hPa SSE 5.6 km/h 5.6 km/h 53 % 0 mm
11:57 21.1 °C 11.4 °C 1017.8 hPa NNW 3.2 km/h 3.2 km/h 54 % 0 mm
12:02 21.1 °C 11.4 °C 1017.5 hPa Calm   0.2 km/h 54 % 0 mm
12:07 21.3 °C 11.6 °C 1017.5 hPa SSE 1.9 km/h   54 % 0 mm
12:12 21.6 °C 10.7 °C 1017.2 hPa NW 3.7 km/h 3.7 km/h 50 % 0 mm
12:17 21.9 °C 11.3 °C 1017.2 hPa ESE 3.7 km/h 3.7 km/h 51 % 0 mm
12:22 22.2 °C 11.2 °C 1017.2 hPa North 3.7 km/h   50 % 0 mm
12:27 22.4 °C 11.8 °C 1017.2 hPa Calm     51 % 0 mm
12:33 22.6 °C 11.7 °C 1017.2 hPa ESE 1.9 km/h   50 % 0 mm
12:38 22.6 °C 11.1 °C 1016.8 hPa NW 3.7 km/h 3.7 km/h 48 % 0 mm
12:43 22.7 °C 11.2 °C 1016.8 hPa SSE 1.9 km/h 1.9 km/h 48 % 0 mm
12:48 23 °C 11.7 °C 1016.8 hPa SE 1.9 km/h   49 % 0 mm
12:53 23.2 °C 10.9 °C 1016.5 hPa ESE 1.9 km/h 1.9 km/h 46 % 0 mm
12:58 23.1 °C 11.2 °C 1016.5 hPa NW 5.6 km/h 5.6 km/h 47 % 0 mm
13:03 22.9 °C 11 °C 1016.5 hPa NW 5.6 km/h 5.6 km/h 47 % 0 mm
13:08 22.9 °C 11 °C 1016.1 hPa West 1.9 km/h   47 % 0 mm
13:13 22.9 °C 11.3 °C 1016.1 hPa ESE 1.9 km/h 1.9 km/h 48 % 0 mm
13:18 23.1 °C 10.8 °C 1016.1 hPa NW 3.7 km/h 3.7 km/h 46 % 0 mm
13:23 23.1 °C 11.2 °C 1015.8 hPa NNW 1.9 km/h   47 % 0 mm
13:28 23.2 °C 11.3 °C 1015.8 hPa Calm     47 % 0 mm
13:33 23.1 °C 10.8 °C 1015.8 hPa WNW 5.6 km/h 5.6 km/h 46 % 0 mm
13:38 22.9 °C 10.4 °C 1015.8 hPa NNW 3.7 km/h 3.7 km/h 45 % 0 mm
13:43 23.1 °C 10.5 °C 1015.5 hPa NW 3.7 km/h 3.7 km/h 45 % 0 mm
13:48 23.3 °C 11 °C 1015.5 hPa East 1.9 km/h   46 % 0 mm
13:53 23.6 °C 10.6 °C 1015.5 hPa Calm     44 % 0 mm
13:58 23.6 °C 10.7 °C 1015.5 hPa NW 1.9 km/h 1.9 km/h 44 % 0 mm
14:03 23.6 °C 10.6 °C 1015.5 hPa West 1.9 km/h 1.9 km/h 44 % 0 mm
14:08 23.6 °C 10.9 °C 1015.1 hPa West 1.9 km/h   45 % 0 mm
14:13 23.4 °C 10.4 °C 1015.1 hPa Calm   0.2 km/h 44 % 0 mm
14:18 23.3 °C 10.3 °C 1015.1 hPa SW 5.6 km/h 5.6 km/h 44 % 0 mm
14:23 23.3 °C 10.7 °C 1015.1 hPa NW 3.7 km/h 3.7 km/h 45 % 0 mm
14:28 23.3 °C 10.3 °C 1015.1 hPa Calm     44 % 0 mm
14:33 23.3 °C 9.7 °C 1015.1 hPa NW 1.9 km/h 1.9 km/h 42 % 0 mm
14:38 23.4 °C 10.1 °C 1015.1 hPa NW 3.7 km/h 3.7 km/h 43 % 0 mm
14:43 23.3 °C 10.1 °C 1015.1 hPa WNW 3.7 km/h 3.7 km/h 43 % 0 mm
14:48 23.3 °C 9.7 °C 1015.1 hPa NNW 1.9 km/h   42 % 0 mm
14:53 23.5 °C 9.8 °C 1014.8 hPa Calm     42 % 0 mm
14:58 23.6 °C 9.6 °C 1014.8 hPa NW 1.6 km/h 1.6 km/h 41 % 0 mm
15:03 23.4 °C 9.4 °C 1014.8 hPa West 3.7 km/h 3.7 km/h 41 % 0 mm
15:08 23.3 °C 9.3 °C 1014.8 hPa Calm     41 % 0 mm
15:13 23.3 °C 9.7 °C 1014.8 hPa NW 3.7 km/h 3.7 km/h 42 % 0 mm
15:18 23.3 °C 9.3 °C 1014.8 hPa WNW 1.9 km/h   41 % 0 mm
15:23 23.3 °C 9.7 °C 1014.8 hPa Calm     42 % 0 mm
15:28 23.2 °C 9.6 °C 1014.8 hPa West 3.2 km/h 3.2 km/h 42 % 0 mm
15:33 23.1 °C 9.1 °C 1014.8 hPa NW 1.9 km/h   41 % 0 mm
15:38 23.1 °C 9.1 °C 1014.4 hPa East 1.6 km/h 1.6 km/h 41 % 0 mm
15:43 23 °C 9.4 °C 1014.4 hPa Calm     42 % 0 mm
15:48 23.1 °C 8.7 °C 1014.4 hPa NW 1.9 km/h 1.9 km/h 40 % 0 mm
15:53 23.1 °C 9.4 °C 1014.4 hPa NW 1.9 km/h   42 % 0 mm
15:58 23 °C 9.4 °C 1014.4 hPa NW 1.9 km/h   42 % 0 mm
16:03 22.9 °C 9.3 °C 1014.4 hPa WNW 1.9 km/h   42 % 0 mm
16:08 22.9 °C 9.3 °C 1014.4 hPa WNW 1.9 km/h   42 % 0 mm
16:13 22.8 °C 9.6 °C 1014.4 hPa Calm     43 % 0 mm
16:18 22.7 °C 9.2 °C 1014.4 hPa WNW 1.9 km/h   42 % 0 mm
16:23 22.6 °C 9.1 °C 1014.4 hPa Calm     42 % 0 mm
16:28 22.6 °C 9.3 °C 1014.4 hPa WNW 1.6 km/h 1.6 km/h 43 % 0 mm
16:33 22.5 °C 9.3 °C 1014.4 hPa Calm     43 % 0 mm
16:38 22.4 °C 9.6 °C 1014.4 hPa Calm     44 % 0 mm
16:43 22.3 °C 9.4 °C 1014.4 hPa Calm     44 % 0 mm
16:49 22.2 °C 9.3 °C 1014.4 hPa Calm     44 % 0 mm
16:54 22.1 °C 9.2 °C 1014.4 hPa Calm     44 % 0 mm
16:59 21.9 °C 9.1 °C 1014.4 hPa Calm     44 % 0 mm
17:04 21.7 °C 9.2 °C 1014.4 hPa Calm     45 % 0 mm
17:09 21.4 °C 10.2 °C 1014.4 hPa Calm     49 % 0 mm
17:14 21.1 °C 10.2 °C 1014.4 hPa Calm     50 % 0 mm
17:19 20.7 °C 10.2 °C 1014.4 hPa Calm     51 % 0 mm
17:24 20.4 °C 10.2 °C 1014.4 hPa Calm     52 % 0 mm
17:29 20.1 °C 10.5 °C 1014.1 hPa Calm     54 % 0 mm
17:34 19.7 °C 10.4 °C 1014.1 hPa Calm     55 % 0 mm
17:39 19.3 °C 10.3 °C 1014.4 hPa Calm     56 % 0 mm
17:44 19.1 °C 9.8 °C 1014.4 hPa Calm     55 % 0 mm
17:49 18.7 °C 9.8 °C 1014.4 hPa Calm     56 % 0 mm
17:54 18.5 °C 9.8 °C 1014.4 hPa Calm     57 % 0 mm
17:59 18.2 °C 9.6 °C 1014.4 hPa Calm     57 % 0 mm
18:04 18 °C 9.9 °C 1014.4 hPa Calm     59 % 0 mm
18:09 17.7 °C 9.3 °C 1014.4 hPa Calm     58 % 0 mm
18:14 17.4 °C 9.3 °C 1014.4 hPa Calm     59 % 0 mm
18:19 17.3 °C 9.4 °C 1014.4 hPa Calm     60 % 0 mm
18:24 17.1 °C 9.7 °C 1014.4 hPa Calm     62 % 0 mm
18:29 16.8 °C 9.4 °C 1014.4 hPa Calm     62 % 0 mm
18:34 16.6 °C 9.5 °C 1014.8 hPa Calm     63 % 0 mm
18:39 16.5 °C 9.7 °C 1014.8 hPa Calm     64 % 0 mm
18:44 16.4 °C 9.3 °C 1014.8 hPa Calm     63 % 0 mm
18:49 16.2 °C 9.4 °C 1014.8 hPa Calm     64 % 0 mm
18:54 16.1 °C 9.3 °C 1014.8 hPa Calm     64 % 0 mm
18:59 16 °C 9.2 °C 1014.8 hPa Calm     64 % 0 mm
19:04 15.9 °C 9.3 °C 1014.8 hPa Calm     65 % 0 mm
19:09 15.8 °C 9.3 °C 1014.8 hPa Calm     65 % 0 mm
19:14 15.8 °C 9.4 °C 1014.8 hPa Calm     66 % 0 mm
19:19 15.7 °C 9.4 °C 1014.8 hPa Calm     66 % 0 mm
19:24 15.6 °C 9.5 °C 1014.8 hPa Calm     67 % 0 mm
19:29 15.5 °C 9.4 °C 1014.8 hPa Calm     67 % 0 mm
19:34 15.3 °C 9.4 °C 1014.8 hPa Calm     68 % 0 mm
19:39 15.2 °C 9.3 °C 1014.8 hPa Calm     68 % 0 mm
19:44 15 °C 9.3 °C 1014.8 hPa Calm     69 % 0 mm
19:49 14.9 °C 9.4 °C 1014.8 hPa Calm     70 % 0 mm
19:54 14.8 °C 9.6 °C 1014.8 hPa Calm     71 % 0 mm
19:59 14.8 °C 9.8 °C 1014.8 hPa Calm     72 % 0 mm
20:04 14.6 °C 9.8 °C 1014.8 hPa Calm     73 % 0 mm
20:09 14.4 °C 9.6 °C 1014.8 hPa Calm     73 % 0 mm
20:14 14.2 °C 9.4 °C 1014.8 hPa Calm     73 % 0 mm
20:19 13.8 °C 9.3 °C 1014.8 hPa Calm     74 % 0 mm
20:24 13.6 °C 9.2 °C 1014.8 hPa Calm     75 % 0 mm
20:29 13.2 °C 9.3 °C 1015.1 hPa Calm     77 % 0 mm
20:34 13 °C 9.1 °C 1014.8 hPa Calm     77 % 0 mm
20:39 12.8 °C 9.1 °C 1014.8 hPa Calm     78 % 0 mm
20:44 12.8 °C 9.3 °C 1014.8 hPa Calm     79 % 0 mm
20:49 12.8 °C 9.3 °C 1015.1 hPa Calm     79 % 0 mm
20:54 12.9 °C 9.3 °C 1015.1 hPa Calm     79 % 0 mm
20:59 12.9 °C 9.3 °C 1015.1 hPa Calm     79 % 0 mm
21:04 12.8 °C 9.1 °C 1015.1 hPa Calm     78 % 0 mm
21:09 12.8 °C 9.2 °C 1015.1 hPa Calm     79 % 0 mm
21:14 12.8 °C 9.2 °C 1015.1 hPa Calm     79 % 0 mm
21:19 12.8 °C 9.3 °C 1015.1 hPa Calm     79 % 0 mm
21:24 12.8 °C 9.1 °C 1015.1 hPa Calm     78 % 0 mm
21:29 12.8 °C 9.1 °C 1015.1 hPa Calm     78 % 0 mm
21:34 12.6 °C 8.9 °C 1015.1 hPa Calm     78 % 0 mm
21:39 12.4 °C 8.7 °C 1014.8 hPa Calm     78 % 0 mm
21:44 12.2 °C 8.6 °C 1014.8 hPa Calm     79 % 0 mm
21:49 11.8 °C 8.5 °C 1014.8 hPa WNW 1.9 km/h   80 % 0 mm
21:54 11.4 °C 8.2 °C 1014.8 hPa Calm     81 % 0 mm
22:00 11.1 °C 8.2 °C 1014.4 hPa Calm     82 % 0 mm
22:04 11 °C 8.2 °C 1014.4 hPa Calm     83 % 0 mm
22:10 10.8 °C 8 °C 1014.4 hPa Calm     83 % 0 mm
22:15 10.7 °C 8.1 °C 1014.4 hPa Calm     84 % 0 mm
22:20 10.6 °C 8 °C 1014.1 hPa Calm     84 % 0 mm
22:25 10.6 °C 8 °C 1014.1 hPa Calm     84 % 0 mm
22:30 10.6 °C 7.9 °C 1014.1 hPa Calm     84 % 0 mm
22:35 10.5 °C 8.1 °C 1014.4 hPa Calm     85 % 0 mm
22:40 10.5 °C 8.1 °C 1014.4 hPa Calm     85 % 0 mm
22:45 10.6 °C 8.1 °C 1014.4 hPa Calm     85 % 0 mm
22:50 10.6 °C 8.2 °C 1014.4 hPa Calm     85 % 0 mm
22:55 10.6 °C 8.1 °C 1014.4 hPa Calm     85 % 0 mm
23:00 10.4 °C 8 °C 1014.4 hPa Calm     85 % 0 mm
23:05 10.3 °C 8.1 °C 1014.4 hPa Calm     86 % 0 mm
23:10 10.3 °C 8.1 °C 1014.4 hPa Calm     86 % 0 mm
23:15 10.3 °C 8.1 °C 1014.4 hPa Calm     86 % 0 mm
23:20 10.3 °C 8.1 °C 1014.4 hPa Calm     86 % 0 mm
23:25 10.3 °C 8.1 °C 1014.4 hPa Calm     86 % 0 mm
23:30 10.3 °C 8.2 °C 1014.4 hPa Calm     87 % 0 mm
23:35 10.3 °C 8.1 °C 1014.4 hPa Calm     86 % 0 mm
23:40 10.5 °C 8.3 °C 1014.4 hPa Calm     86 % 0 mm
23:45 10.8 °C 8.3 °C 1014.4 hPa Calm     85 % 0 mm
23:50 10.9 °C 8.3 °C 1014.4 hPa Calm     84 % 0 mm
23:55 10.9 °C 8.3 °C 1014.4 hPa Calm     84 % 0 mm
Park Place, Exeter, Tulare County, California, USA
Compliments of Weather Underground - 2.75 mb